Overview Statistics Trail Chart Weather Telemetry Raw packets
 

This is the latest recevied weather packets stored in our database for station/object K7OWW-2. If no packets are shown the sender has not sent any weather packets the latest 10 day(s).

<< 9 10 11 12 13 14 15 >>
Time Temp. Humidity Pressure Rain* Wind** Luminosity Snow
1788378230 8.33° C 94% 1009.3 hPa 1.78 mm - - -
1788377928 8.33° C 94% 1009.4 hPa 2.03 mm - - -
1788377328 8.33° C 95% 1009.2 hPa 2.03 mm - - -
1788376728 7.78° C 94% 1009.2 hPa 2.03 mm - - -
1788376430 7.78° C 94% 1009.1 hPa 2.03 mm - - -
1788376128 7.78° C 94% 1009.3 hPa 2.03 mm - - -
1788375528 7.78° C 93% 1009.4 hPa 1.78 mm - - -
1788374928 7.78° C 93% 1009.4 hPa 1.52 mm - - -
1788374328 7.78° C 91% 1009.5 hPa 1.27 mm - - -
1788373728 7.78° C 91% 1009.5 hPa 1.27 mm - - -
1788373128 8.33° C 90% 1009.5 hPa 1.02 mm - - -
1788372530 8.33° C 88% 1009.4 hPa 0.76 mm - - -
1788371928 8.89° C 88% 1009.3 hPa 0.76 mm - - -
1788371328 9.44° C 90% 1009.1 hPa 0.51 mm - - -
1788370728 9.44° C 87% 1009 hPa 0.25 mm - - -
1788370128 10.56° C 81% 1008.9 hPa 0 mm - - -
1788369528 11.11° C 79% 1008.7 hPa 0 mm - - -
1788368928 11.11° C 76% 1008.6 hPa 0 mm - - -
1788368328 11.11° C 75% 1008.7 hPa 0 mm - - -
1788367728 10.56° C 77% 1008.5 hPa 0 mm - - -
1788367128 10.56° C 78% 1008.5 hPa 0 mm - - -
1788366528 10° C 80% 1008.6 hPa 0 mm - - -
1788365928 10° C 82% 1008.7 hPa 0 mm - - -
1788365328 9.44° C 83% 1008.8 hPa 0 mm - - -
1788364728 9.44° C 83% 1009 hPa 0 mm - - -

* Rain latest hour (hover to see other rain measurements)
** Current wind speed in m/s (hover to see current wind gust speed)